Bahia Blanca, Bahia Blanca Comandante Espora Airport (SAZB)

NameBahia Blanca Comandante Espora Airport
CityBahia Blanca
CountryArgentina
ICAOSAZB
IATABHI
Altitude75 m
CoordinatesGoogle Map
Live Air TrafficLiveATC.net
METARSAZB 032048Z 32003KT 9999 FEW045CB BKN060 32/16 Q1006 RETS
2020-02-03 20:48:00 Wind: Northwest (320°) 1.54 m/s - Visibility: > 10000 m - Temperature: 32 °C - Dew point: 16 °C - Humidity: 38.1% - Pressure: 1006 hPa

Sorry, no flights used the airport in this database.